createdAt,value
2018-12-29T00:02:47.449Z,86.80
2018-12-29T00:05:38.410Z,87.00
2018-12-29T00:08:29.034Z,87.20
2018-12-29T00:11:19.996Z,87.20
2018-12-29T00:14:12.063Z,87.60
2018-12-29T00:17:02.785Z,86.60
2018-12-29T00:19:53.692Z,86.60
2018-12-29T00:22:44.729Z,87.20
2018-12-29T00:25:35.727Z,86.90
2018-12-29T00:28:26.220Z,86.80
2018-12-29T00:31:17.619Z,86.90
2018-12-29T00:34:08.099Z,86.80
2018-12-29T00:36:58.469Z,87.30
2018-12-29T00:39:49.205Z,86.90
2018-12-29T00:42:40.242Z,86.80
2018-12-29T00:45:30.828Z,87.00
2018-12-29T00:48:20.938Z,86.70
2018-12-29T00:51:11.516Z,86.20
2018-12-29T00:54:03.102Z,86.40
2018-12-29T00:56:53.729Z,86.40
2018-12-29T00:59:43.613Z,86.50
2018-12-29T01:02:34.594Z,86.90
2018-12-29T01:05:24.511Z,87.50
2018-12-29T01:08:14.686Z,86.00
2018-12-29T01:11:05.599Z,86.20
2018-12-29T01:13:55.812Z,86.10
2018-12-29T01:16:46.798Z,86.30
2018-12-29T01:19:37.441Z,85.80
2018-12-29T01:22:28.477Z,85.70
2018-12-29T01:25:19.202Z,85.20
2018-12-29T01:28:10.696Z,85.10
2018-12-29T01:31:01.410Z,85.10
2018-12-29T01:33:52.547Z,85.30
2018-12-29T01:36:43.857Z,84.80
2018-12-29T01:39:34.889Z,85.10
2018-12-29T01:42:25.860Z,84.90
2018-12-29T01:45:17.782Z,85.60
2018-12-29T01:48:08.843Z,85.30
2018-12-29T01:50:59.649Z,85.30
2018-12-29T01:53:50.495Z,85.80
2018-12-29T01:56:41.127Z,86.20
2018-12-29T01:59:33.166Z,86.40
2018-12-29T02:02:23.971Z,84.80
2018-12-29T02:05:15.025Z,84.90
2018-12-29T02:08:06.193Z,84.90
2018-12-29T02:10:57.198Z,85.40
2018-12-29T02:13:48.125Z,85.80
2018-12-29T02:16:39.041Z,85.10
2018-12-29T02:19:30.661Z,84.60
2018-12-29T02:22:21.442Z,84.80
2018-12-29T02:25:12.247Z,85.00
2018-12-29T02:28:02.946Z,84.60
2018-12-29T02:30:54.178Z,85.00
2018-12-29T02:33:46.378Z,84.80
2018-12-29T02:36:37.291Z,85.00
2018-12-29T02:39:27.941Z,85.80
2018-12-29T02:42:18.833Z,85.30
2018-12-29T02:45:09.428Z,85.20
2018-12-29T02:48:00.367Z,85.30
2018-12-29T02:50:50.829Z,85.60
2018-12-29T02:53:42.019Z,85.60
2018-12-29T02:56:32.764Z,85.60
2018-12-29T02:59:23.739Z,85.30
2018-12-29T03:02:14.413Z,85.80
2018-12-29T03:05:06.583Z,86.10
2018-12-29T03:07:57.197Z,85.50
2018-12-29T03:10:48.324Z,85.30
2018-12-29T03:13:38.748Z,84.50
2018-12-29T03:16:29.573Z,83.90
2018-12-29T03:19:20.547Z,83.80
2018-12-29T03:22:10.698Z,84.00
2018-12-29T03:25:00.954Z,83.20
2018-12-29T03:27:50.861Z,82.40
2018-12-29T03:30:41.651Z,82.50
2018-12-29T03:33:32.771Z,82.70
2018-12-29T03:36:22.823Z,82.00
2018-12-29T03:39:13.241Z,82.10
2018-12-29T03:42:04.855Z,82.20
2018-12-29T03:44:55.577Z,82.20
2018-12-29T03:47:45.644Z,82.00
2018-12-29T03:50:35.900Z,82.20
2018-12-29T03:53:27.008Z,82.70
2018-12-29T03:56:18.045Z,82.00
2018-12-29T03:59:08.769Z,82.50
2018-12-29T04:02:00.036Z,82.20
2018-12-29T04:04:51.008Z,82.00
2018-12-29T04:07:42.122Z,81.50
2018-12-29T04:10:32.725Z,82.70
2018-12-29T04:13:23.229Z,81.80
2018-12-29T04:16:14.560Z,82.70
2018-12-29T04:19:05.456Z,82.30
2018-12-29T04:21:56.121Z,82.70
2018-12-29T04:24:47.254Z,82.50
2018-12-29T04:27:38.230Z,82.30
2018-12-29T04:30:28.590Z,82.40
2018-12-29T04:33:19.500Z,82.20
2018-12-29T04:36:10.575Z,83.20
2018-12-29T04:39:01.969Z,81.80
2018-12-29T04:41:52.821Z,81.50
2018-12-29T04:44:43.991Z,81.40
2018-12-29T04:47:34.445Z,82.30
2018-12-29T04:50:24.904Z,81.30
2018-12-29T04:53:25.350Z,81.40
2018-12-29T04:56:17.497Z,81.50
2018-12-29T04:59:08.376Z,82.00
2018-12-29T05:01:59.186Z,82.70
2018-12-29T05:04:53.556Z,81.70
2018-12-29T05:07:44.462Z,81.50
2018-12-29T05:10:35.791Z,82.00
2018-12-29T05:13:26.772Z,80.80
2018-12-29T05:16:17.607Z,81.30
2018-12-29T05:19:20.272Z,81.40
2018-12-29T05:22:10.810Z,81.30
2018-12-29T05:25:01.662Z,81.20
2018-12-29T05:27:52.929Z,80.70
2018-12-29T05:30:44.030Z,81.00
2018-12-29T05:33:34.624Z,81.40
2018-12-29T05:36:25.982Z,81.40
2018-12-29T05:39:16.821Z,81.70
2018-12-29T05:42:07.310Z,81.00
2018-12-29T05:44:58.494Z,80.90
2018-12-29T05:47:49.253Z,81.30
2018-12-29T05:50:40.564Z,80.90
2018-12-29T05:53:31.838Z,81.30
2018-12-29T05:56:22.978Z,81.00
2018-12-29T05:59:13.346Z,81.00
2018-12-29T06:02:03.567Z,81.60
2018-12-29T06:04:54.445Z,81.00
2018-12-29T06:07:45.365Z,81.50
2018-12-29T06:10:35.629Z,81.20
2018-12-29T06:13:26.704Z,81.50
2018-12-29T06:16:16.893Z,81.10
2018-12-29T06:19:07.172Z,81.10
2018-12-29T06:21:58.069Z,81.70
2018-12-29T06:24:48.787Z,81.80
2018-12-29T06:27:40.078Z,82.20
2018-12-29T06:30:32.139Z,82.50
2018-12-29T06:33:22.669Z,84.10
2018-12-29T06:36:13.019Z,83.60
2018-12-29T06:39:06.031Z,82.60
2018-12-29T06:41:56.981Z,82.00
2018-12-29T06:44:48.433Z,81.80
2018-12-29T06:47:38.782Z,82.20
2018-12-29T06:50:30.886Z,82.10
2018-12-29T06:53:21.787Z,82.50
2018-12-29T06:56:12.488Z,82.80
2018-12-29T06:59:03.497Z,82.70
2018-12-29T07:01:53.941Z,82.40
2018-12-29T07:04:44.598Z,82.50
2018-12-29T07:07:35.474Z,82.50
2018-12-29T07:10:25.995Z,83.00
2018-12-29T07:13:16.820Z,82.60
2018-12-29T07:16:07.363Z,82.40
2018-12-29T07:18:58.144Z,82.20
2018-12-29T07:21:49.285Z,82.30
2018-12-29T07:24:40.281Z,82.80
2018-12-29T07:27:31.283Z,83.20
2018-12-29T07:30:21.340Z,83.20
2018-12-29T07:33:12.473Z,82.80
2018-12-29T07:36:03.054Z,82.60
2018-12-29T07:38:54.294Z,82.30
2018-12-29T07:41:45.179Z,81.90
2018-12-29T07:44:36.405Z,82.20
2018-12-29T07:47:26.978Z,82.00
2018-12-29T07:50:17.599Z,82.00
2018-12-29T07:53:08.246Z,82.50
2018-12-29T07:55:59.409Z,81.90
2018-12-29T07:58:50.300Z,80.20
2018-12-29T08:01:40.574Z,80.70
2018-12-29T08:04:31.931Z,81.40
2018-12-29T08:07:22.006Z,80.80
2018-12-29T08:10:13.000Z,81.10
2018-12-29T08:13:03.993Z,78.70
2018-12-29T08:15:54.987Z,77.90
2018-12-29T08:18:45.225Z,77.80
2018-12-29T08:21:35.885Z,77.60
2018-12-29T08:24:26.228Z,77.40
2018-12-29T08:27:16.863Z,76.80
2018-12-29T08:30:08.035Z,75.90
2018-12-29T08:32:57.900Z,77.50
2018-12-29T08:35:48.028Z,75.40
2018-12-29T08:38:39.197Z,75.50
2018-12-29T08:41:29.409Z,76.00
2018-12-29T08:44:20.342Z,75.30
2018-12-29T08:47:11.379Z,75.50
2018-12-29T08:50:01.635Z,76.10
2018-12-29T08:52:52.889Z,76.20
2018-12-29T08:55:44.244Z,76.30
2018-12-29T08:58:35.050Z,76.10
2018-12-29T09:01:25.002Z,76.50
2018-12-29T09:04:16.244Z,76.10
2018-12-29T09:07:06.937Z,76.50
2018-12-29T09:09:57.547Z,76.40
2018-12-29T09:12:48.239Z,76.80
2018-12-29T09:15:40.281Z,76.10
2018-12-29T09:18:30.766Z,76.40
2018-12-29T09:21:20.662Z,76.40
2018-12-29T09:24:11.221Z,76.60
2018-12-29T09:27:02.159Z,76.90
2018-12-29T09:29:53.060Z,76.40
2018-12-29T09:32:44.173Z,75.60
2018-12-29T09:35:34.854Z,75.10
2018-12-29T09:38:25.085Z,74.80
2018-12-29T09:41:15.955Z,75.30
2018-12-29T09:44:06.790Z,74.50
2018-12-29T09:46:58.271Z,73.50
2018-12-29T09:49:49.002Z,72.00
2018-12-29T09:52:39.312Z,73.00
2018-12-29T09:55:29.728Z,73.90
2018-12-29T09:58:20.279Z,73.40
2018-12-29T10:01:10.078Z,73.10
2018-12-29T10:04:01.225Z,73.70
2018-12-29T10:06:51.811Z,73.60
2018-12-29T10:09:42.552Z,74.20
2018-12-29T10:12:33.609Z,75.00
2018-12-29T10:15:23.466Z,75.00
2018-12-29T10:18:14.326Z,74.20
2018-12-29T10:21:04.595Z,73.80
2018-12-29T10:23:54.837Z,73.00
2018-12-29T10:26:45.485Z,73.40
2018-12-29T10:29:35.874Z,72.90
2018-12-29T10:32:26.599Z,73.80
2018-12-29T10:35:17.394Z,73.20
2018-12-29T10:38:08.850Z,73.40
2018-12-29T10:41:00.034Z,70.40
2018-12-29T10:43:50.097Z,69.30
2018-12-29T10:46:41.437Z,69.80
2018-12-29T10:49:32.018Z,69.50
2018-12-29T10:52:23.323Z,69.70
2018-12-29T10:55:21.412Z,70.00
2018-12-29T10:58:12.442Z,71.20
2018-12-29T11:01:03.245Z,70.50
2018-12-29T11:03:54.738Z,69.60
2018-12-29T11:06:46.481Z,69.50
2018-12-29T11:09:37.802Z,68.00
2018-12-29T11:12:28.159Z,68.10
2018-12-29T11:15:19.258Z,66.00
2018-12-29T11:18:10.424Z,65.60
2018-12-29T11:21:02.517Z,66.30
2018-12-29T11:23:53.658Z,67.00
2018-12-29T11:26:45.431Z,66.40
2018-12-29T11:29:36.366Z,67.50
2018-12-29T11:32:26.629Z,68.00
2018-12-29T11:35:18.157Z,67.70
2018-12-29T11:38:08.294Z,68.00
2018-12-29T11:40:59.302Z,68.40
2018-12-29T11:43:49.916Z,70.60
2018-12-29T11:46:40.912Z,70.50
2018-12-29T11:49:32.233Z,69.90
2018-12-29T11:52:23.421Z,70.50
2018-12-29T11:55:13.945Z,70.90
2018-12-29T11:58:05.333Z,70.80
2018-12-29T12:00:56.303Z,71.50
2018-12-29T12:03:47.326Z,71.70
2018-12-29T12:06:38.585Z,70.80
2018-12-29T12:09:30.360Z,71.70
2018-12-29T12:12:21.078Z,72.20
2018-12-29T12:15:12.584Z,72.20
2018-12-29T12:18:03.238Z,74.20
2018-12-29T12:20:53.657Z,74.00
2018-12-29T12:23:44.217Z,74.60
2018-12-29T12:26:35.257Z,73.40
2018-12-29T12:29:26.358Z,73.40
2018-12-29T12:32:16.221Z,74.00
2018-12-29T12:35:07.874Z,73.60
2018-12-29T12:37:58.839Z,73.70
2018-12-29T12:40:49.560Z,72.80
2018-12-29T12:43:39.697Z,72.30
2018-12-29T12:46:30.873Z,72.60
2018-12-29T12:49:22.270Z,73.30
2018-12-29T12:52:13.280Z,74.20
2018-12-29T12:55:05.032Z,73.30
2018-12-29T12:57:58.671Z,72.70
2018-12-29T13:00:48.735Z,73.50
2018-12-29T13:03:40.242Z,74.50
2018-12-29T13:06:31.655Z,73.80
2018-12-29T13:09:22.875Z,73.80
2018-12-29T13:12:13.546Z,74.50
2018-12-29T13:15:04.622Z,75.20
2018-12-29T13:17:55.665Z,76.20
2018-12-29T13:20:46.507Z,77.00
2018-12-29T13:23:37.830Z,77.10
2018-12-29T13:26:28.899Z,76.80
2018-12-29T13:29:19.778Z,76.80
2018-12-29T13:32:10.505Z,76.70
2018-12-29T13:35:00.515Z,76.60
2018-12-29T13:37:51.572Z,76.70
2018-12-29T13:40:42.265Z,76.70
2018-12-29T13:43:33.088Z,77.00
2018-12-29T13:46:24.248Z,77.60
2018-12-29T13:49:15.462Z,77.40
2018-12-29T13:52:06.740Z,78.00
2018-12-29T13:54:58.058Z,78.40
2018-12-29T13:57:49.126Z,78.90
2018-12-29T14:00:39.856Z,79.60
2018-12-29T14:03:30.287Z,79.10
2018-12-29T14:06:21.171Z,79.40
2018-12-29T14:09:12.334Z,79.00
2018-12-29T14:12:03.272Z,79.20
2018-12-29T14:14:53.709Z,80.10
2018-12-29T14:17:44.172Z,79.60
2018-12-29T14:20:35.329Z,78.90
2018-12-29T14:23:25.827Z,79.30
2018-12-29T14:26:17.463Z,79.10
2018-12-29T14:29:07.751Z,79.40
2018-12-29T14:31:58.190Z,79.90
2018-12-29T14:34:49.519Z,79.70
2018-12-29T14:37:40.605Z,80.70
2018-12-29T14:40:32.069Z,79.80
2018-12-29T14:43:23.414Z,80.60
2018-12-29T14:46:14.062Z,81.60
2018-12-29T14:49:08.211Z,81.60
2018-12-29T14:51:58.953Z,82.00
2018-12-29T14:54:49.510Z,82.60
2018-12-29T14:57:40.432Z,82.40
2018-12-29T15:00:31.004Z,81.60
2018-12-29T15:03:21.689Z,81.60
2018-12-29T15:06:13.545Z,81.80
2018-12-29T15:09:06.043Z,82.20
2018-12-29T15:11:57.396Z,81.10
2018-12-29T15:14:48.238Z,81.20
2018-12-29T15:17:39.498Z,81.40
2018-12-29T15:20:31.467Z,81.20
2018-12-29T15:23:22.488Z,81.10
2018-12-29T15:26:12.390Z,81.70
2018-12-29T15:29:03.215Z,80.50
2018-12-29T15:31:54.199Z,81.00
2018-12-29T15:34:45.185Z,80.90
2018-12-29T15:37:36.627Z,80.70
2018-12-29T15:40:27.445Z,81.30
2018-12-29T15:43:18.683Z,80.70
2018-12-29T15:46:09.599Z,81.60
2018-12-29T15:49:00.365Z,80.30
2018-12-29T15:51:51.167Z,80.40
2018-12-29T15:54:42.388Z,80.30
2018-12-29T15:57:33.110Z,80.30
2018-12-29T16:00:25.022Z,80.30
2018-12-29T16:03:16.284Z,80.50
2018-12-29T16:06:07.221Z,81.10
2018-12-29T16:08:58.127Z,81.50
2018-12-29T16:11:48.942Z,82.00
2018-12-29T16:14:39.426Z,82.00
2018-12-29T16:17:30.238Z,82.40
2018-12-29T16:20:21.521Z,82.30
2018-12-29T16:23:12.188Z,82.50
2018-12-29T16:26:03.260Z,82.50
2018-12-29T16:28:54.166Z,83.00
2018-12-29T16:31:45.072Z,83.30
2018-12-29T16:34:37.241Z,83.30
2018-12-29T16:37:28.283Z,83.80
2018-12-29T16:40:19.669Z,83.50
2018-12-29T16:43:11.733Z,83.50
2018-12-29T16:46:02.182Z,84.60
2018-12-29T16:48:52.336Z,84.40
2018-12-29T16:51:42.910Z,84.90
2018-12-29T16:54:33.228Z,84.90
2018-12-29T16:57:23.246Z,84.90
2018-12-29T17:00:25.306Z,85.50
2018-12-29T17:03:17.449Z,85.20
2018-12-29T17:06:08.519Z,85.60
2018-12-29T17:08:59.094Z,85.20
2018-12-29T17:11:52.549Z,85.60
2018-12-29T17:14:42.008Z,85.70
2018-12-29T17:17:32.779Z,86.00
2018-12-29T17:20:23.014Z,85.80
2018-12-29T17:23:12.987Z,85.70
2018-12-29T17:26:04.415Z,85.80
2018-12-29T17:28:55.284Z,86.50
2018-12-29T17:31:45.632Z,86.50
2018-12-29T17:34:37.106Z,87.00
2018-12-29T17:37:27.724Z,86.50
2018-12-29T17:40:18.841Z,86.20
2018-12-29T17:43:09.747Z,87.10
2018-12-29T17:46:00.911Z,86.10
2018-12-29T17:48:51.669Z,86.00
2018-12-29T17:51:42.568Z,85.70
2018-12-29T17:54:33.792Z,85.80
2018-12-29T17:57:25.119Z,86.20
2018-12-29T18:00:16.100Z,85.90
2018-12-29T18:03:06.250Z,86.70
2018-12-29T18:05:58.232Z,86.60
2018-12-29T18:08:50.076Z,86.40
2018-12-29T18:11:41.001Z,86.00
2018-12-29T18:14:31.944Z,86.20
2018-12-29T18:17:23.117Z,86.30
2018-12-29T18:20:15.803Z,86.90
2018-12-29T18:23:06.713Z,86.90
2018-12-29T18:25:58.527Z,87.20
2018-12-29T18:28:50.168Z,87.20
2018-12-29T18:31:40.732Z,86.60
2018-12-29T18:34:31.792Z,86.50
2018-12-29T18:37:22.686Z,86.40
2018-12-29T18:40:17.675Z,86.80
2018-12-29T18:43:08.617Z,86.30
2018-12-29T18:45:59.096Z,86.80
2018-12-29T18:48:50.110Z,86.60
2018-12-29T18:51:40.975Z,87.40
2018-12-29T18:54:31.811Z,86.60
2018-12-29T18:57:22.605Z,86.50
2018-12-29T19:00:13.088Z,87.10
2018-12-29T19:03:04.841Z,87.10
2018-12-29T19:05:55.526Z,87.10
2018-12-29T19:08:46.065Z,87.40
2018-12-29T19:11:37.002Z,87.30
2018-12-29T19:14:27.674Z,88.00
2018-12-29T19:17:18.717Z,87.80
2018-12-29T19:20:09.556Z,88.10
2018-12-29T19:23:00.141Z,89.00
2018-12-29T19:25:51.279Z,88.90
2018-12-29T19:28:42.987Z,89.30
2018-12-29T19:31:34.710Z,89.40
2018-12-29T19:34:25.569Z,89.00
2018-12-29T19:37:16.010Z,88.80
2018-12-29T19:40:07.548Z,88.80
2018-12-29T19:42:58.160Z,89.60
2018-12-29T19:45:49.180Z,90.00
2018-12-29T19:48:40.153Z,90.10
2018-12-29T19:51:31.244Z,90.10
2018-12-29T19:54:21.903Z,90.10
2018-12-29T19:57:15.359Z,90.10
2018-12-29T20:00:06.737Z,90.30
2018-12-29T20:02:57.235Z,90.20
2018-12-29T20:05:48.361Z,90.30
2018-12-29T20:08:39.023Z,90.40
2018-12-29T20:11:35.328Z,90.70
2018-12-29T20:14:22.367Z,90.60
2018-12-29T20:17:14.476Z,90.20
2018-12-29T20:20:05.594Z,89.40
2018-12-29T20:22:59.827Z,89.20
2018-12-29T20:25:50.898Z,88.70
2018-12-29T20:28:43.735Z,88.40
2018-12-29T20:31:35.305Z,88.40
2018-12-29T20:34:26.550Z,88.10
2018-12-29T20:37:17.440Z,88.80
2018-12-29T20:40:08.702Z,88.30
2018-12-29T20:42:59.129Z,88.30
2018-12-29T20:45:50.313Z,89.00
2018-12-29T20:48:40.276Z,89.00
2018-12-29T20:51:31.470Z,88.40
2018-12-29T20:54:22.345Z,88.70
2018-12-29T20:57:13.125Z,88.90
2018-12-29T21:00:04.367Z,89.30
2018-12-29T21:02:55.929Z,89.00
2018-12-29T21:05:46.619Z,89.10
2018-12-29T21:08:37.666Z,89.30
2018-12-29T21:11:28.076Z,89.50
2018-12-29T21:14:18.886Z,89.80
2018-12-29T21:17:09.818Z,89.70
2018-12-29T21:20:00.042Z,89.50
2018-12-29T21:22:51.262Z,89.70
2018-12-29T21:25:41.750Z,89.30
2018-12-29T21:28:31.631Z,89.40
2018-12-29T21:31:22.353Z,89.40
2018-12-29T21:34:14.365Z,89.10
2018-12-29T21:37:05.449Z,89.00
2018-12-29T21:39:55.878Z,88.90
2018-12-29T21:42:46.354Z,89.20
2018-12-29T21:45:36.456Z,89.10
2018-12-29T21:48:27.349Z,89.40
2018-12-29T21:51:18.649Z,89.10
2018-12-29T21:54:08.861Z,88.40
2018-12-29T21:56:59.976Z,90.00
2018-12-29T21:59:51.003Z,90.50
2018-12-29T22:02:41.958Z,89.50
2018-12-29T22:05:32.999Z,88.80
2018-12-29T22:08:23.590Z,90.00
2018-12-29T22:11:14.419Z,89.70
2018-12-29T22:14:05.722Z,89.80
2018-12-29T22:16:57.564Z,88.00
2018-12-29T22:19:49.007Z,88.10
2018-12-29T22:22:40.381Z,88.00
2018-12-29T22:25:30.902Z,88.80
2018-12-29T22:28:21.238Z,87.80
2018-12-29T22:31:12.674Z,87.30
2018-12-29T22:34:03.527Z,87.80
2018-12-29T22:36:54.318Z,87.90
2018-12-29T22:39:44.508Z,88.30
2018-12-29T22:42:35.770Z,89.00
2018-12-29T22:45:26.978Z,89.20
2018-12-29T22:48:17.817Z,89.90
2018-12-29T22:51:09.339Z,90.10
2018-12-29T22:54:00.270Z,90.20
2018-12-29T22:56:51.629Z,90.20
2018-12-29T22:59:42.395Z,90.30
2018-12-29T23:02:33.494Z,90.30
2018-12-29T23:05:25.284Z,90.10
2018-12-29T23:08:16.008Z,90.00
2018-12-29T23:11:06.493Z,90.00
2018-12-29T23:13:56.606Z,90.10
2018-12-29T23:16:47.558Z,89.80
2018-12-29T23:19:37.964Z,90.10
2018-12-29T23:22:29.105Z,89.90
2018-12-29T23:25:20.131Z,90.00
2018-12-29T23:28:11.221Z,90.10
2018-12-29T23:31:02.670Z,90.10
2018-12-29T23:33:53.653Z,90.10
2018-12-29T23:36:44.144Z,90.30
2018-12-29T23:39:34.537Z,90.50
2018-12-29T23:42:25.462Z,90.10
2018-12-29T23:45:16.429Z,90.10
2018-12-29T23:48:07.580Z,90.10
2018-12-29T23:51:05.201Z,90.30
2018-12-29T23:53:48.662Z,90.50
2018-12-29T23:56:38.760Z,91.10
2018-12-29T23:59:29.893Z,90.60
